createdAt,value
2023-04-07T00:01:16.426Z,3.80
2023-04-07T00:03:46.571Z,4.00
2023-04-07T00:06:15.052Z,4.10
2023-04-07T00:08:43.450Z,3.70
2023-04-07T00:11:11.748Z,4.00
2023-04-07T00:13:40.219Z,3.90
2023-04-07T00:16:09.016Z,4.10
2023-04-07T00:18:37.420Z,3.90
2023-04-07T00:21:07.176Z,3.90
2023-04-07T00:23:35.534Z,3.90
2023-04-07T00:26:03.938Z,3.90
2023-04-07T00:28:32.323Z,4.10
2023-04-07T00:31:00.869Z,4.40
2023-04-07T00:33:29.326Z,4.30
2023-04-07T00:35:58.961Z,4.30
2023-04-07T00:38:28.802Z,3.90
2023-04-07T00:40:59.796Z,3.90
2023-04-07T00:43:28.915Z,4.00
2023-04-07T00:45:57.833Z,4.10
2023-04-07T00:48:26.506Z,4.00
2023-04-07T00:50:55.133Z,4.00
2023-04-07T00:53:23.609Z,4.40
2023-04-07T00:55:53.520Z,4.00
2023-04-07T00:58:21.862Z,4.10
2023-04-07T01:00:56.481Z,4.00
2023-04-07T01:03:31.953Z,4.10
2023-04-07T01:06:03.179Z,4.10
2023-04-07T01:08:39.146Z,4.20
2023-04-07T01:11:14.801Z,4.10
2023-04-07T01:13:48.257Z,4.20
2023-04-07T01:16:44.847Z,4.20
2023-04-07T01:19:18.041Z,5.00
2023-04-07T01:21:57.610Z,4.20
2023-04-07T01:24:43.689Z,4.20
2023-04-07T01:27:26.538Z,4.50
2023-04-07T01:29:57.235Z,4.30
2023-04-07T01:32:27.575Z,4.30
2023-04-07T01:34:58.685Z,4.20
2023-04-07T01:37:29.705Z,4.20
2023-04-07T01:39:58.374Z,4.20
2023-04-07T01:42:27.734Z,4.20
2023-04-07T01:44:59.118Z,4.50
2023-04-07T01:47:31.089Z,4.30
2023-04-07T01:50:04.099Z,4.30
2023-04-07T01:52:32.897Z,4.70
2023-04-07T01:55:01.465Z,4.20
2023-04-07T01:57:31.803Z,4.40
2023-04-07T02:00:08.020Z,4.40
2023-04-07T02:02:53.473Z,4.40
2023-04-07T02:05:23.889Z,4.50
2023-04-07T02:07:54.993Z,4.50
2023-04-07T02:10:26.704Z,4.50
2023-04-07T02:13:00.054Z,4.90
2023-04-07T02:15:30.954Z,4.50
2023-04-07T02:18:00.742Z,4.50
2023-04-07T02:20:30.792Z,4.50
2023-04-07T02:22:59.523Z,4.50
2023-04-07T02:25:29.000Z,4.50
2023-04-07T02:27:58.974Z,4.60
2023-04-07T02:30:30.665Z,4.50
2023-04-07T02:32:59.098Z,4.50
2023-04-07T02:35:27.472Z,4.40
2023-04-07T02:37:55.957Z,4.50
2023-04-07T02:40:24.256Z,4.60
2023-04-07T02:42:55.103Z,4.90
2023-04-07T02:45:24.570Z,4.70
2023-04-07T02:47:54.385Z,4.60
2023-04-07T02:50:23.025Z,4.70
2023-04-07T02:52:51.296Z,4.70
2023-04-07T02:55:20.005Z,4.70
2023-04-07T02:57:48.408Z,4.70
2023-04-07T03:00:28.064Z,4.70
2023-04-07T03:03:11.277Z,4.70
2023-04-07T03:05:42.807Z,4.70
2023-04-07T03:08:13.055Z,4.90
2023-04-07T03:10:41.879Z,4.60
2023-04-07T03:13:12.834Z,4.80
2023-04-07T03:15:41.637Z,4.40
2023-04-07T03:18:11.813Z,4.80
2023-04-07T03:20:42.533Z,4.80
2023-04-07T03:23:13.265Z,4.90
2023-04-07T03:25:41.985Z,4.90
2023-04-07T03:28:12.566Z,4.90
2023-04-07T03:30:41.827Z,5.00
2023-04-07T03:33:12.499Z,4.90
2023-04-07T03:35:41.324Z,4.80
2023-04-07T03:38:10.139Z,4.90
2023-04-07T03:40:38.810Z,4.90
2023-04-07T03:43:12.467Z,4.90
2023-04-07T03:45:41.571Z,5.00
2023-04-07T03:48:12.376Z,5.30
2023-04-07T03:50:51.621Z,5.00
2023-04-07T03:53:21.439Z,5.00
2023-04-07T03:55:50.893Z,4.90
2023-04-07T03:58:36.857Z,5.00
2023-04-07T04:01:06.720Z,5.00
2023-04-07T04:03:36.893Z,5.00
2023-04-07T04:06:20.097Z,5.00
2023-04-07T04:08:48.710Z,5.00
2023-04-07T04:11:17.148Z,5.10
2023-04-07T04:13:54.657Z,5.10
2023-04-07T04:16:23.556Z,5.20
2023-04-07T04:18:55.204Z,5.40
2023-04-07T04:21:24.019Z,5.10
2023-04-07T04:23:53.530Z,5.10
2023-04-07T04:26:25.986Z,5.10
2023-04-07T04:28:57.785Z,5.10
2023-04-07T04:31:26.848Z,5.10
2023-04-07T04:33:56.817Z,5.20
2023-04-07T04:36:26.582Z,5.40
2023-04-07T04:38:59.879Z,5.20
2023-04-07T04:41:28.152Z,5.30
2023-04-07T04:43:57.186Z,5.30
2023-04-07T04:46:27.882Z,5.30
2023-04-07T04:48:58.038Z,5.30
2023-04-07T04:51:27.274Z,5.30
2023-04-07T04:54:03.930Z,5.40
2023-04-07T04:56:32.342Z,5.40
2023-04-07T04:59:00.807Z,5.30
2023-04-07T05:01:38.077Z,5.70
2023-04-07T05:04:11.947Z,5.40
2023-04-07T05:06:46.618Z,5.40
2023-04-07T05:09:17.501Z,5.40
2023-04-07T05:11:48.142Z,5.50
2023-04-07T05:14:16.834Z,5.40
2023-04-07T05:16:52.950Z,5.50
2023-04-07T05:19:27.280Z,5.60
2023-04-07T05:21:58.983Z,5.60
2023-04-07T05:24:30.314Z,5.60
2023-04-07T05:27:02.104Z,5.60
2023-04-07T05:29:31.848Z,5.80
2023-04-07T05:32:01.694Z,5.70
2023-04-07T05:34:33.529Z,5.80
2023-04-07T05:37:02.997Z,5.80
2023-04-07T05:39:31.587Z,5.80
2023-04-07T05:42:00.176Z,5.90
2023-04-07T05:44:29.118Z,5.80
2023-04-07T05:46:57.996Z,5.90
2023-04-07T05:49:28.314Z,5.90
2023-04-07T05:52:10.010Z,5.90
2023-04-07T05:54:43.855Z,6.00
2023-04-07T05:57:14.442Z,5.90
2023-04-07T05:59:46.468Z,5.90
2023-04-07T06:02:15.313Z,6.00
2023-04-07T06:04:46.252Z,6.00
2023-04-07T06:07:20.736Z,6.00
2023-04-07T06:09:49.183Z,6.10
2023-04-07T06:12:17.449Z,6.10
2023-04-07T06:14:48.127Z,6.10
2023-04-07T06:17:16.410Z,6.10
2023-04-07T06:19:44.658Z,6.20
2023-04-07T06:22:12.999Z,6.20
2023-04-07T06:24:42.836Z,6.20
2023-04-07T06:27:11.084Z,6.20
2023-04-07T06:29:39.349Z,6.20
2023-04-07T06:32:08.342Z,6.20
2023-04-07T06:34:37.847Z,6.30
2023-04-07T06:37:06.971Z,6.40
2023-04-07T06:39:35.391Z,6.40
2023-04-07T06:42:05.101Z,6.50
2023-04-07T06:44:38.665Z,6.60
2023-04-07T06:47:06.954Z,6.70
2023-04-07T06:49:37.063Z,6.80
2023-04-07T06:52:06.331Z,6.80
2023-04-07T06:54:34.656Z,6.80
2023-04-07T06:57:04.639Z,6.90
2023-04-07T06:59:32.939Z,6.90
2023-04-07T07:02:01.266Z,7.00
2023-04-07T07:04:29.571Z,7.00
2023-04-07T07:06:57.974Z,7.10
2023-04-07T07:09:26.582Z,7.10
2023-04-07T07:11:54.830Z,7.10
2023-04-07T07:14:24.521Z,7.20
2023-04-07T07:16:52.810Z,7.30
2023-04-07T07:19:21.071Z,7.30
2023-04-07T07:21:49.451Z,7.30
2023-04-07T07:24:17.709Z,7.30
2023-04-07T07:26:46.068Z,7.30
2023-04-07T07:29:14.548Z,7.40
2023-04-07T07:31:44.610Z,7.50
2023-04-07T07:34:12.845Z,7.50
2023-04-07T07:36:54.722Z,7.60
2023-04-07T07:39:23.087Z,7.50
2023-04-07T07:41:51.982Z,7.50
2023-04-07T07:44:21.258Z,7.60
2023-04-07T07:46:51.352Z,7.60
2023-04-07T07:49:19.676Z,7.60
2023-04-07T07:51:47.999Z,7.60
2023-04-07T07:54:16.214Z,7.60
2023-04-07T07:56:44.416Z,7.60
2023-04-07T07:59:12.585Z,7.60
2023-04-07T08:01:41.025Z,7.60
2023-04-07T08:04:11.166Z,7.60
2023-04-07T08:06:39.493Z,7.70
2023-04-07T08:09:07.730Z,7.70
2023-04-07T08:11:35.944Z,7.70
2023-04-07T08:14:04.164Z,7.70
2023-04-07T08:16:32.470Z,7.70
2023-04-07T08:19:00.906Z,7.70
2023-04-07T08:21:31.760Z,7.70
2023-04-07T08:24:01.054Z,7.70
2023-04-07T08:26:29.431Z,7.70
2023-04-07T08:28:58.558Z,7.70
2023-04-07T08:31:27.580Z,7.80
2023-04-07T08:33:58.314Z,7.80
2023-04-07T08:36:28.025Z,7.80
2023-04-07T08:38:58.678Z,7.90
2023-04-07T08:41:34.559Z,7.90
2023-04-07T08:44:03.598Z,7.80
2023-04-07T08:46:32.190Z,7.80
2023-04-07T08:49:02.039Z,7.80
2023-04-07T08:51:31.865Z,7.90
2023-04-07T08:54:07.448Z,8.00
2023-04-07T08:56:35.883Z,8.20
2023-04-07T08:59:04.787Z,8.30
2023-04-07T09:01:36.081Z,8.60
2023-04-07T09:04:05.110Z,8.80
2023-04-07T09:06:34.109Z,8.90
2023-04-07T09:09:05.778Z,9.00
2023-04-07T09:11:37.177Z,9.10
2023-04-07T09:14:05.591Z,9.00
2023-04-07T09:16:34.004Z,9.10
2023-04-07T09:19:02.336Z,9.20
2023-04-07T09:21:49.360Z,9.20
2023-04-07T09:24:28.408Z,9.40
2023-04-07T09:27:17.631Z,9.60
2023-04-07T09:29:47.935Z,9.70
2023-04-07T09:32:38.824Z,9.80
2023-04-07T09:35:07.903Z,9.90
2023-04-07T09:37:36.394Z,10.00
2023-04-07T09:40:07.366Z,10.10
2023-04-07T09:42:37.992Z,10.00
2023-04-07T09:45:08.262Z,10.00
2023-04-07T09:47:36.617Z,10.00
2023-04-07T09:50:07.173Z,9.90
2023-04-07T09:52:53.214Z,9.90
2023-04-07T09:55:25.825Z,9.90
2023-04-07T09:57:59.383Z,10.00
2023-04-07T10:00:27.652Z,10.00
2023-04-07T10:03:03.899Z,10.00
2023-04-07T10:05:33.985Z,10.10
2023-04-07T10:08:03.552Z,10.30
2023-04-07T10:10:33.764Z,10.60
2023-04-07T10:13:19.497Z,10.90
2023-04-07T10:15:48.080Z,11.20
2023-04-07T10:18:19.471Z,11.40
2023-04-07T10:20:52.426Z,11.40
2023-04-07T10:23:29.708Z,11.40
2023-04-07T10:26:02.605Z,11.40
2023-04-07T10:28:35.146Z,11.30
2023-04-07T10:31:04.114Z,11.30
2023-04-07T10:33:51.460Z,11.10
2023-04-07T10:36:21.509Z,11.20
2023-04-07T10:39:22.814Z,11.10
2023-04-07T10:41:54.874Z,11.00
2023-04-07T10:45:00.937Z,11.00
2023-04-07T10:47:29.424Z,10.50
2023-04-07T10:50:20.712Z,10.90
2023-04-07T10:52:51.021Z,10.80
2023-04-07T10:55:36.739Z,10.80
2023-04-07T10:58:24.221Z,10.80
2023-04-07T11:01:19.505Z,10.80
2023-04-07T11:04:00.110Z,10.80
2023-04-07T11:06:28.919Z,10.90
2023-04-07T11:08:57.581Z,11.10
2023-04-07T11:11:46.060Z,11.20
2023-04-07T11:14:28.285Z,11.50
2023-04-07T11:16:57.064Z,11.60
2023-04-07T11:19:25.583Z,11.70
2023-04-07T11:22:28.741Z,11.80
2023-04-07T11:24:58.795Z,11.90
2023-04-07T11:27:28.601Z,11.80
2023-04-07T11:29:58.558Z,11.70
2023-04-07T11:32:29.953Z,11.50
2023-04-07T11:34:58.904Z,11.40
2023-04-07T11:37:29.117Z,11.20
2023-04-07T11:39:58.590Z,11.10
2023-04-07T11:42:37.046Z,11.00
2023-04-07T11:45:17.210Z,10.90
2023-04-07T11:47:46.540Z,10.80
2023-04-07T11:50:15.156Z,10.80
2023-04-07T11:52:44.663Z,10.70
2023-04-07T11:55:24.474Z,10.70
2023-04-07T11:57:52.988Z,10.70
2023-04-07T12:00:22.881Z,10.70
2023-04-07T12:02:51.613Z,10.70
2023-04-07T12:05:20.178Z,10.60
2023-04-07T12:07:55.667Z,10.60
2023-04-07T12:10:26.793Z,10.60
2023-04-07T12:12:56.340Z,10.60
2023-04-07T12:15:27.424Z,10.60
2023-04-07T12:17:56.106Z,10.60
2023-04-07T12:20:24.659Z,10.70
2023-04-07T12:22:53.013Z,10.70
2023-04-07T12:25:21.404Z,10.70
2023-04-07T12:27:49.686Z,10.70
2023-04-07T12:30:18.176Z,10.70
2023-04-07T12:32:48.482Z,10.70
2023-04-07T12:35:16.863Z,10.70
2023-04-07T12:37:49.924Z,10.70
2023-04-07T12:40:18.609Z,10.70
2023-04-07T12:42:46.839Z,10.70
2023-04-07T12:45:15.173Z,10.80
2023-04-07T12:47:44.264Z,10.90
2023-04-07T12:50:14.423Z,10.90
2023-04-07T12:52:43.109Z,11.10
2023-04-07T12:55:11.416Z,11.30
2023-04-07T12:57:39.718Z,11.50
2023-04-07T13:00:09.946Z,11.50
2023-04-07T13:02:40.617Z,11.50
2023-04-07T13:05:09.592Z,11.30
2023-04-07T13:07:39.189Z,11.10
2023-04-07T13:10:09.374Z,10.90
2023-04-07T13:12:40.031Z,10.70
2023-04-07T13:15:09.190Z,10.60
2023-04-07T13:17:38.610Z,10.50
2023-04-07T13:20:11.360Z,10.40
2023-04-07T13:22:50.749Z,10.40
2023-04-07T13:25:29.182Z,10.30
2023-04-07T13:27:57.643Z,10.20
2023-04-07T13:34:55.099Z,10.10
2023-04-07T13:37:23.467Z,10.10
2023-04-07T13:39:56.517Z,10.20
2023-04-07T13:42:25.095Z,10.30
2023-04-07T13:44:54.597Z,10.30
2023-04-07T13:47:23.016Z,10.50
2023-04-07T13:49:55.332Z,10.50
2023-04-07T13:52:23.667Z,10.60
2023-04-07T13:54:54.176Z,10.70
2023-04-07T13:57:22.648Z,10.90
2023-04-07T13:59:53.355Z,11.00
2023-04-07T14:02:22.831Z,11.00
2023-04-07T14:04:51.724Z,11.00
2023-04-07T14:07:20.550Z,11.10
2023-04-07T14:09:49.429Z,11.00
2023-04-07T14:12:21.492Z,11.00
2023-04-07T14:14:52.272Z,10.90
2023-04-07T14:17:20.757Z,10.80
2023-04-07T14:19:49.276Z,10.90
2023-04-07T14:22:17.736Z,11.00
2023-04-07T14:24:46.071Z,11.00
2023-04-07T14:27:20.674Z,11.10
2023-04-07T14:29:50.609Z,11.10
2023-04-07T14:32:19.284Z,11.10
2023-04-07T14:34:47.972Z,11.20
2023-04-07T14:37:18.106Z,11.20
2023-04-07T14:40:01.386Z,11.20
2023-04-07T14:42:34.331Z,11.10
2023-04-07T14:45:04.718Z,11.10
2023-04-07T14:47:38.686Z,11.00
2023-04-07T14:50:08.465Z,11.00
2023-04-07T14:52:37.140Z,11.10
2023-04-07T14:55:09.102Z,11.10
2023-04-07T14:57:38.957Z,11.00
2023-04-07T15:00:10.521Z,11.00
2023-04-07T15:02:39.729Z,10.90
2023-04-07T15:05:09.645Z,10.80
2023-04-07T15:07:39.615Z,10.70
2023-04-07T15:10:14.885Z,10.60
2023-04-07T15:12:43.191Z,10.50
2023-04-07T15:15:17.115Z,10.50
2023-04-07T15:17:45.810Z,10.40
2023-04-07T15:20:14.310Z,10.40
2023-04-07T15:22:42.723Z,10.30
2023-04-07T15:25:11.293Z,10.20
2023-04-07T15:27:39.722Z,10.20
2023-04-07T15:30:09.429Z,10.10
2023-04-07T15:32:39.317Z,10.00
2023-04-07T15:35:08.292Z,10.00
2023-04-07T15:37:36.977Z,9.90
2023-04-07T15:40:06.025Z,9.80
2023-04-07T15:42:41.640Z,9.80
2023-04-07T15:45:11.450Z,9.70
2023-04-07T15:47:41.365Z,10.60
2023-04-07T15:50:10.977Z,9.70
2023-04-07T15:52:39.455Z,9.70
2023-04-07T15:55:08.326Z,9.70
2023-04-07T15:57:37.197Z,9.70
2023-04-07T16:00:06.844Z,9.60
2023-04-07T16:02:36.999Z,9.60
2023-04-07T16:05:08.124Z,9.60
2023-04-07T16:07:36.796Z,9.50
2023-04-07T16:10:08.182Z,9.50
2023-04-07T16:12:36.999Z,9.50
2023-04-07T16:15:06.191Z,9.40
2023-04-07T16:17:34.975Z,9.40
2023-04-07T16:20:04.496Z,9.40
2023-04-07T16:22:34.242Z,9.40
2023-04-07T16:25:02.932Z,9.30
2023-04-07T16:27:31.885Z,9.30
2023-04-07T16:30:00.342Z,9.20
2023-04-07T16:32:28.862Z,9.20
2023-04-07T16:34:57.294Z,9.10
2023-04-07T16:37:25.591Z,9.10
2023-04-07T16:39:57.752Z,9.00
2023-04-07T16:42:28.632Z,8.90
2023-04-07T16:44:58.378Z,8.90
2023-04-07T16:47:28.263Z,8.90
2023-04-07T16:49:57.106Z,8.90
2023-04-07T16:52:26.647Z,8.80
2023-04-07T16:54:57.622Z,8.80
2023-04-07T16:57:26.140Z,8.80
2023-04-07T16:59:54.924Z,8.70
2023-04-07T17:02:23.927Z,8.70
2023-04-07T17:04:52.454Z,8.60
2023-04-07T17:07:21.063Z,8.60
2023-04-07T17:09:50.828Z,8.50
2023-04-07T17:12:20.696Z,8.50
2023-04-07T17:14:49.077Z,8.50
2023-04-07T17:17:17.604Z,8.40
2023-04-07T17:19:46.100Z,8.40
2023-04-07T17:22:14.660Z,8.30
2023-04-07T17:24:43.143Z,8.30
2023-04-07T17:27:11.681Z,8.30
2023-04-07T17:29:41.516Z,8.20
2023-04-07T17:32:09.770Z,8.10
2023-04-07T17:34:38.163Z,8.10
2023-04-07T17:37:06.712Z,8.10
2023-04-07T17:39:35.274Z,8.00
2023-04-07T17:42:03.717Z,8.00
2023-04-07T17:44:32.110Z,7.90
2023-04-07T17:47:02.557Z,7.90
2023-04-07T17:49:30.859Z,7.90
2023-04-07T17:51:59.153Z,7.90
2023-04-07T17:54:27.450Z,7.90
2023-04-07T17:56:56.344Z,7.90
2023-04-07T17:59:26.115Z,8.00
2023-04-07T18:01:54.498Z,7.80
2023-04-07T18:04:26.299Z,7.70
2023-04-07T18:06:54.788Z,7.70
2023-04-07T18:09:23.027Z,7.60
2023-04-07T18:11:51.424Z,7.50
2023-04-07T18:14:19.713Z,7.50
2023-04-07T18:16:48.179Z,7.50
2023-04-07T18:19:16.753Z,7.50
2023-04-07T18:21:47.329Z,7.50
2023-04-07T18:24:15.600Z,7.50
2023-04-07T18:26:44.953Z,7.60
2023-04-07T18:29:14.748Z,7.60
2023-04-07T18:31:43.574Z,7.60
2023-04-07T18:34:12.434Z,7.60
2023-04-07T18:36:43.016Z,7.60
2023-04-07T18:39:13.598Z,7.60
2023-04-07T18:41:44.791Z,7.60
2023-04-07T18:44:13.630Z,7.60
2023-04-07T18:46:44.437Z,7.60
2023-04-07T18:49:15.185Z,7.60
2023-04-07T18:51:44.635Z,7.50
2023-04-07T18:54:14.427Z,7.50
2023-04-07T18:56:42.707Z,7.50
2023-04-07T18:59:11.099Z,7.50
2023-04-07T19:01:41.923Z,7.50
2023-04-07T19:04:10.899Z,7.50
2023-04-07T19:06:39.572Z,7.50
2023-04-07T19:09:07.946Z,7.50
2023-04-07T19:11:37.847Z,7.50
2023-04-07T19:14:06.336Z,7.50
2023-04-07T19:16:36.056Z,7.50
2023-04-07T19:19:05.053Z,7.50
2023-04-07T19:21:33.779Z,7.50
2023-04-07T19:24:02.060Z,7.40
2023-04-07T19:26:30.699Z,7.40
2023-04-07T19:29:02.234Z,7.40
2023-04-07T19:31:31.064Z,7.40
2023-04-07T19:33:59.791Z,7.40
2023-04-07T19:36:28.446Z,7.40
2023-04-07T19:38:56.949Z,7.30
2023-04-07T19:41:25.545Z,7.30
2023-04-07T19:43:53.999Z,7.30
2023-04-07T19:46:23.927Z,7.30
2023-04-07T19:48:52.545Z,7.30
2023-04-07T19:51:21.004Z,7.20
2023-04-07T19:53:49.870Z,7.20
2023-04-07T19:56:18.289Z,7.20
2023-04-07T19:58:49.921Z,7.20
2023-04-07T20:01:19.051Z,7.20
2023-04-07T20:03:49.143Z,7.30
2023-04-07T20:06:19.049Z,7.10
2023-04-07T20:08:48.446Z,7.10
2023-04-07T20:11:16.979Z,7.00
2023-04-07T20:13:50.853Z,7.00
2023-04-07T20:16:19.171Z,6.90
2023-04-07T20:18:49.258Z,6.80
2023-04-07T20:21:17.624Z,6.80
2023-04-07T20:23:46.467Z,6.70
2023-04-07T20:26:14.929Z,6.70
2023-04-07T20:28:43.442Z,6.60
2023-04-07T20:31:12.004Z,6.60
2023-04-07T20:33:40.430Z,6.50
2023-04-07T20:36:11.196Z,6.50
2023-04-07T20:38:43.641Z,6.50
2023-04-07T20:41:13.462Z,6.50
2023-04-07T20:43:42.215Z,6.50
2023-04-07T20:46:10.710Z,6.50
2023-04-07T20:48:39.319Z,6.40
2023-04-07T20:51:09.535Z,6.40
2023-04-07T20:53:38.294Z,6.30
2023-04-07T20:56:06.889Z,6.40
2023-04-07T20:58:35.233Z,6.30
2023-04-07T21:01:03.586Z,6.40
2023-04-07T21:03:32.083Z,6.30
2023-04-07T21:06:00.632Z,6.30
2023-04-07T21:08:33.154Z,6.20
2023-04-07T21:11:01.374Z,6.20
2023-04-07T21:13:29.636Z,6.10
2023-04-07T21:15:59.388Z,6.00
2023-04-07T21:18:27.938Z,5.90
2023-04-07T21:20:58.243Z,5.80
2023-04-07T21:23:26.982Z,5.80
2023-04-07T21:26:01.536Z,5.70
2023-04-07T21:28:29.993Z,5.60
2023-04-07T21:30:58.459Z,5.50
2023-04-07T21:33:26.999Z,5.40
2023-04-07T21:35:55.555Z,5.40
2023-04-07T21:38:24.364Z,5.30
2023-04-07T21:40:57.726Z,5.30
2023-04-07T21:43:28.887Z,5.30
2023-04-07T21:45:57.289Z,5.20
2023-04-07T21:48:25.592Z,5.30
2023-04-07T21:50:54.070Z,5.20
2023-04-07T21:53:22.773Z,5.30
2023-04-07T21:55:52.030Z,5.30
2023-04-07T21:58:23.505Z,5.30
2023-04-07T22:00:51.925Z,5.30
2023-04-07T22:03:20.575Z,5.40
2023-04-07T22:05:48.945Z,5.40
2023-04-07T22:08:17.439Z,5.40
2023-04-07T22:10:46.238Z,5.40
2023-04-07T22:13:14.738Z,5.50
2023-04-07T22:15:44.582Z,5.60
2023-04-07T22:18:13.589Z,5.50
2023-04-07T22:20:42.068Z,5.50
2023-04-07T22:23:10.359Z,5.50
2023-04-07T22:25:38.807Z,5.50
2023-04-07T22:28:07.127Z,5.60
2023-04-07T22:30:35.462Z,5.60
2023-04-07T22:33:07.089Z,5.70
2023-04-07T22:35:35.703Z,5.60
2023-04-07T22:38:04.347Z,5.60
2023-04-07T22:40:32.881Z,5.70
2023-04-07T22:43:01.430Z,5.60
2023-04-07T22:45:31.578Z,5.50
2023-04-07T22:47:59.996Z,5.60
2023-04-07T22:50:29.997Z,5.50
2023-04-07T22:52:58.692Z,5.50
2023-04-07T22:55:27.429Z,5.50
2023-04-07T22:57:55.891Z,5.50
2023-04-07T23:00:25.246Z,5.60
2023-04-07T23:02:55.151Z,5.50
2023-04-07T23:05:23.833Z,5.50
2023-04-07T23:07:53.929Z,5.50
2023-04-07T23:10:24.745Z,5.60
2023-04-07T23:12:53.980Z,5.50
2023-04-07T23:15:22.486Z,5.60
2023-04-07T23:17:50.889Z,5.50
2023-04-07T23:20:19.560Z,5.50
2023-04-07T23:22:47.875Z,5.50
2023-04-07T23:25:17.746Z,5.50
2023-04-07T23:27:46.028Z,5.40
2023-04-07T23:30:14.805Z,5.50
2023-04-07T23:32:43.211Z,5.30
2023-04-07T23:35:12.071Z,5.50
2023-04-07T23:37:40.655Z,5.40
2023-04-07T23:40:10.603Z,5.40
2023-04-07T23:42:40.663Z,5.40
2023-04-07T23:45:09.697Z,5.40
2023-04-07T23:47:38.173Z,5.40
2023-04-07T23:50:07.567Z,5.50
2023-04-07T23:52:35.952Z,5.50
2023-04-07T23:55:04.502Z,5.40
2023-04-07T23:58:04.400Z,5.40
